createdAt,value
2022-10-01T00:04:09.510Z,10.36
2022-10-01T00:09:34.343Z,10.41
2022-10-01T00:14:56.082Z,10.41
2022-10-01T00:20:18.080Z,10.42
2022-10-01T00:25:40.804Z,10.37
2022-10-01T00:31:02.598Z,10.36
2022-10-01T00:36:25.537Z,10.32
2022-10-01T00:41:48.040Z,10.38
2022-10-01T00:47:28.529Z,10.34
2022-10-01T00:53:01.073Z,10.24
2022-10-01T00:58:24.788Z,10.29
2022-10-01T01:03:47.011Z,10.29
2022-10-01T01:09:08.799Z,10.37
2022-10-01T01:14:44.869Z,10.37
2022-10-01T01:20:22.229Z,10.36
2022-10-01T01:25:59.919Z,10.21
2022-10-01T01:31:32.802Z,10.21
2022-10-01T01:37:01.447Z,10.11
2022-10-01T01:42:30.004Z,10.26
2022-10-01T01:47:56.069Z,10.18
2022-10-01T01:53:20.203Z,10.23
2022-10-01T01:58:42.009Z,10.24
2022-10-01T02:04:08.099Z,10.38
2022-10-01T02:10:06.972Z,10.44
2022-10-01T02:15:37.203Z,10.46
2022-10-01T02:21:20.109Z,10.49
2022-10-01T02:26:44.846Z,10.41
2022-10-01T02:32:08.402Z,10.50
2022-10-01T02:37:30.395Z,10.54
2022-10-01T02:42:55.777Z,10.60
2022-10-01T02:48:18.190Z,10.57
2022-10-01T02:53:49.094Z,10.63
2022-10-01T02:59:10.809Z,10.64
2022-10-01T03:04:32.694Z,10.59
2022-10-01T03:09:54.714Z,10.57
2022-10-01T03:15:19.143Z,10.60
2022-10-01T03:20:40.862Z,10.56
2022-10-01T03:26:02.602Z,10.48
2022-10-01T03:31:24.399Z,10.48
2022-10-01T03:36:47.011Z,10.46
2022-10-01T03:42:08.721Z,10.66
2022-10-01T03:47:30.450Z,10.68
2022-10-01T03:52:52.135Z,10.74
2022-10-01T03:58:13.864Z,10.65
2022-10-01T04:03:35.566Z,10.69
2022-10-01T04:08:57.295Z,10.63
2022-10-01T04:14:18.987Z,10.58
2022-10-01T04:19:40.702Z,10.64
2022-10-01T04:25:02.700Z,10.71
2022-10-01T04:30:26.624Z,10.82
2022-10-01T04:35:48.323Z,10.70
2022-10-01T04:41:10.075Z,10.71
2022-10-01T04:46:31.808Z,10.81
2022-10-01T04:51:53.543Z,10.85
2022-10-01T04:57:15.261Z,10.84
2022-10-01T05:02:37.785Z,10.91
2022-10-01T05:07:59.646Z,10.94
2022-10-01T05:13:21.392Z,10.96
2022-10-01T05:18:43.513Z,11.02
2022-10-01T05:24:05.615Z,11.08
2022-10-01T05:29:27.378Z,11.13
2022-10-01T05:34:53.410Z,11.11
2022-10-01T05:40:15.582Z,11.15
2022-10-01T05:45:37.480Z,11.20
2022-10-01T05:50:59.202Z,11.27
2022-10-01T05:56:20.907Z,11.23
2022-10-01T06:01:42.718Z,11.25
2022-10-01T06:07:04.475Z,11.22
2022-10-01T06:12:26.728Z,11.13
2022-10-01T06:17:48.411Z,11.10
2022-10-01T06:23:12.384Z,11.11
2022-10-01T06:28:34.418Z,11.09
2022-10-01T06:33:56.112Z,11.02
2022-10-01T06:39:17.809Z,10.92
2022-10-01T06:44:39.535Z,10.93
2022-10-01T06:50:01.229Z,10.94
2022-10-01T06:55:26.765Z,10.93
2022-10-01T07:00:49.389Z,10.91
2022-10-01T07:06:11.400Z,10.92
2022-10-01T07:11:33.327Z,10.95
2022-10-01T07:16:55.219Z,10.76
2022-10-01T07:22:19.259Z,10.78
2022-10-01T07:27:41.147Z,10.60
2022-10-01T07:33:02.872Z,10.61
2022-10-01T07:38:24.626Z,10.72
2022-10-01T07:43:46.783Z,10.72
2022-10-01T07:49:09.219Z,10.70
2022-10-01T07:54:30.980Z,10.68
2022-10-01T07:59:55.909Z,10.66
2022-10-01T08:05:20.304Z,10.75
2022-10-01T08:10:42.060Z,10.76
2022-10-01T08:16:06.088Z,10.78
2022-10-01T08:21:28.563Z,10.83
2022-10-01T08:26:55.952Z,10.79
2022-10-01T08:32:17.973Z,10.85
2022-10-01T08:37:39.654Z,10.83
2022-10-01T08:43:10.873Z,10.86
2022-10-01T08:49:04.178Z,10.89
2022-10-01T08:54:39.265Z,10.90
2022-10-01T09:00:06.768Z,10.92
2022-10-01T09:05:37.472Z,10.79
2022-10-01T09:11:04.300Z,10.83
2022-10-01T09:16:42.297Z,10.92
2022-10-01T09:22:26.013Z,11.03
2022-10-01T09:27:48.462Z,11.08
2022-10-01T09:33:20.033Z,11.08
2022-10-01T09:38:44.648Z,11.12
2022-10-01T09:44:18.706Z,11.34
2022-10-01T09:49:46.064Z,11.55
2022-10-01T09:55:19.590Z,11.53
2022-10-01T10:00:42.327Z,11.54
2022-10-01T10:06:06.597Z,11.58
2022-10-01T10:11:31.323Z,11.65
2022-10-01T10:16:54.769Z,11.73
2022-10-01T10:22:24.750Z,11.76
2022-10-01T10:27:55.332Z,11.69
2022-10-01T10:33:20.804Z,11.74
2022-10-01T10:38:49.521Z,11.81
2022-10-01T10:44:19.541Z,11.85
2022-10-01T10:49:54.531Z,11.94
2022-10-01T10:55:22.844Z,12.01
2022-10-01T11:00:52.819Z,12.12
2022-10-01T11:06:16.991Z,12.16
2022-10-01T11:12:05.235Z,12.26
2022-10-01T11:17:55.229Z,12.38
2022-10-01T11:23:34.828Z,12.34
2022-10-01T11:29:06.379Z,12.46
2022-10-01T11:34:59.807Z,12.44
2022-10-01T11:40:28.116Z,12.53
2022-10-01T11:45:56.344Z,12.57
2022-10-01T11:51:25.096Z,12.55
2022-10-01T11:57:10.865Z,12.58
2022-10-01T12:02:58.110Z,12.58
2022-10-01T12:08:28.411Z,12.57
2022-10-01T12:13:59.215Z,12.57
2022-10-01T12:19:28.438Z,12.54
2022-10-01T12:24:50.371Z,12.56
2022-10-01T12:30:20.352Z,12.63
2022-10-01T12:36:04.701Z,12.73
2022-10-01T12:41:37.425Z,12.71
2022-10-01T12:47:21.770Z,12.73
2022-10-01T12:53:12.695Z,12.84
2022-10-01T12:59:12.687Z,12.93
2022-10-01T13:05:07.993Z,12.95
2022-10-01T13:10:59.939Z,12.99
2022-10-01T13:16:44.522Z,13.00
2022-10-01T13:22:48.614Z,13.11
2022-10-01T13:28:19.898Z,13.23
2022-10-01T13:33:41.963Z,13.29
2022-10-01T13:39:03.781Z,13.41
2022-10-01T13:44:35.105Z,13.43
2022-10-01T13:50:05.505Z,13.49
2022-10-01T13:55:30.597Z,13.53
2022-10-01T14:00:55.371Z,13.63
2022-10-01T14:06:30.549Z,13.71
2022-10-01T14:12:14.605Z,13.79
2022-10-01T14:17:37.068Z,13.83
2022-10-01T14:23:13.616Z,13.89
2022-10-01T14:29:01.484Z,13.94
2022-10-01T14:34:51.238Z,13.96
2022-10-01T14:40:18.546Z,13.98
2022-10-01T14:45:50.790Z,14.01
2022-10-01T14:51:27.536Z,14.02
2022-10-01T14:56:50.623Z,14.05
2022-10-01T15:02:24.306Z,14.06
2022-10-01T15:07:47.313Z,14.06
2022-10-01T15:13:10.370Z,14.06
2022-10-01T15:18:32.232Z,14.05
2022-10-01T15:23:54.310Z,14.06
2022-10-01T15:29:16.618Z,14.05
2022-10-01T15:34:40.390Z,14.02
2022-10-01T15:40:06.428Z,14.03
2022-10-01T15:45:28.138Z,14.04
2022-10-01T15:51:01.150Z,14.03
2022-10-01T15:56:23.915Z,13.97
2022-10-01T16:01:45.752Z,14.00
2022-10-01T16:07:19.653Z,13.96
2022-10-01T16:12:42.264Z,13.98
2022-10-01T16:18:21.914Z,14.00
2022-10-01T16:23:45.459Z,14.00
2022-10-01T16:29:19.654Z,13.97
2022-10-01T16:34:41.526Z,13.99
2022-10-01T16:40:03.227Z,13.96
2022-10-01T16:45:27.960Z,13.98
2022-10-01T16:50:52.044Z,13.96
2022-10-01T16:56:14.229Z,14.03
2022-10-01T17:01:35.936Z,13.99
2022-10-01T17:06:57.642Z,13.97
2022-10-01T17:12:19.411Z,14.01
2022-10-01T17:17:41.830Z,14.03
2022-10-01T17:23:04.791Z,14.01
2022-10-01T17:28:26.622Z,14.03
2022-10-01T17:33:51.044Z,13.97
2022-10-01T17:39:12.755Z,14.00
2022-10-01T17:44:34.460Z,13.99
2022-10-01T17:49:56.154Z,13.98
2022-10-01T17:55:19.793Z,14.00
2022-10-01T18:00:41.709Z,13.92
2022-10-01T18:06:04.048Z,13.91
2022-10-01T18:11:28.104Z,13.96
2022-10-01T18:16:49.924Z,13.93
2022-10-01T18:22:14.280Z,13.91
2022-10-01T18:27:36.107Z,13.92
2022-10-01T18:32:57.968Z,13.90
2022-10-01T18:38:29.674Z,13.86
2022-10-01T18:43:51.425Z,13.86
2022-10-01T18:49:43.458Z,13.75
2022-10-01T18:55:45.358Z,13.44
2022-10-01T19:01:40.412Z,13.20
2022-10-01T19:07:22.322Z,13.19
2022-10-01T19:13:16.045Z,13.21
2022-10-01T19:18:56.705Z,13.38
2022-10-01T19:24:23.708Z,13.19
2022-10-01T19:29:57.453Z,13.01
2022-10-01T19:35:27.584Z,12.91
2022-10-01T19:41:14.772Z,13.04
2022-10-01T19:46:45.476Z,13.15
2022-10-01T19:52:18.782Z,13.18
2022-10-01T19:57:43.544Z,13.12
2022-10-01T20:03:20.935Z,13.04
2022-10-01T20:08:52.614Z,13.04
2022-10-01T20:14:37.182Z,12.98
2022-10-01T20:20:07.746Z,12.85
2022-10-01T20:25:35.486Z,12.83
2022-10-01T20:31:23.090Z,12.78
2022-10-01T20:37:15.267Z,12.79
2022-10-01T20:42:44.105Z,12.92
2022-10-01T20:48:41.734Z,13.09
2022-10-01T20:54:10.835Z,13.21
2022-10-01T20:59:38.806Z,13.30
2022-10-01T21:05:09.147Z,13.38
2022-10-01T21:10:42.982Z,13.32
2022-10-01T21:16:45.173Z,13.24
2022-10-01T21:22:17.057Z,13.27
2022-10-01T21:28:16.312Z,13.32
2022-10-01T21:33:51.935Z,13.30
2022-10-01T21:39:50.782Z,13.33
2022-10-01T21:45:36.427Z,13.37
2022-10-01T21:51:28.665Z,13.36
2022-10-01T21:57:22.194Z,13.28
2022-10-01T22:03:32.253Z,13.20
2022-10-01T22:09:05.726Z,13.13
2022-10-01T22:14:29.516Z,13.05
2022-10-01T22:19:53.844Z,13.09
2022-10-01T22:25:15.639Z,13.16
2022-10-01T22:30:40.482Z,13.12
2022-10-01T22:36:14.841Z,13.22
2022-10-01T22:41:46.388Z,13.25
2022-10-01T22:47:26.504Z,13.28
2022-10-01T22:53:07.845Z,13.26
2022-10-01T22:58:52.809Z,13.25
2022-10-01T23:04:35.297Z,13.07
2022-10-01T23:10:01.435Z,12.99
2022-10-01T23:15:46.398Z,12.96
2022-10-01T23:21:18.695Z,12.90
2022-10-01T23:27:11.741Z,12.97
2022-10-01T23:33:02.614Z,12.85
2022-10-01T23:39:02.304Z,12.79
2022-10-01T23:44:42.159Z,12.72
2022-10-01T23:50:06.533Z,12.71
2022-10-01T23:56:01.220Z,12.75
